sensor_id;sensor_type;location;lat;lon;timestamp;pressure;altitude;pressure_sealevel;temperature;humidity
57859;BME280;49153;45.568;11.894;2023-01-15T00:01:30;101788.59;;;4.50;85.13
57859;BME280;49153;45.568;11.894;2023-01-15T00:03:57;101806.63;;;4.59;85.30
57859;BME280;49153;45.568;11.894;2023-01-15T00:06:24;101783.50;;;4.45;85.29
57859;BME280;49153;45.568;11.894;2023-01-15T00:08:50;101800.63;;;4.55;85.61
57859;BME280;49153;45.568;11.894;2023-01-15T00:11:15;101788.66;;;4.48;85.46
57859;BME280;49153;45.568;11.894;2023-01-15T00:13:41;101803.47;;;4.48;85.57
57859;BME280;49153;45.568;11.894;2023-01-15T00:16:10;101774.31;;;4.32;85.41
57859;BME280;49153;45.568;11.894;2023-01-15T00:18:36;101783.69;;;4.39;85.80
57859;BME280;49153;45.568;11.894;2023-01-15T00:21:03;101773.88;;;4.47;85.70
57859;BME280;49153;45.568;11.894;2023-01-15T00:23:30;101780.53;;;4.57;86.17
57859;BME280;49153;45.568;11.894;2023-01-15T00:26:15;101761.50;;;4.54;86.19
57859;BME280;49153;45.568;11.894;2023-01-15T00:28:59;101762.25;;;4.57;85.56
57859;BME280;49153;45.568;11.894;2023-01-15T00:31:26;101759.03;;;4.49;85.18
57859;BME280;49153;45.568;11.894;2023-01-15T00:33:52;101762.53;;;4.48;85.87
57859;BME280;49153;45.568;11.894;2023-01-15T00:36:17;101756.63;;;4.42;85.96
57859;BME280;49153;45.568;11.894;2023-01-15T00:38:42;101755.75;;;4.41;86.28
57859;BME280;49153;45.568;11.894;2023-01-15T00:41:08;101749.72;;;4.39;86.24
57859;BME280;49153;45.568;11.894;2023-01-15T00:43:34;101754.03;;;4.40;86.49
57859;BME280;49153;45.568;11.894;2023-01-15T00:46:00;101759.81;;;4.51;86.62
57859;BME280;49153;45.568;11.894;2023-01-15T00:48:27;101749.69;;;4.41;86.87
57859;BME280;49153;45.568;11.894;2023-01-15T00:50:52;101767.81;;;4.45;86.34
57859;BME280;49153;45.568;11.894;2023-01-15T00:53:18;101754.13;;;4.39;86.12
57859;BME280;49153;45.568;11.894;2023-01-15T00:55:44;101757.47;;;4.42;86.84
57859;BME280;49153;45.568;11.894;2023-01-15T00:58:09;101741.13;;;4.36;86.74
57859;BME280;49153;45.568;11.894;2023-01-15T01:00:35;101729.78;;;4.37;87.26
57859;BME280;49153;45.568;11.894;2023-01-15T01:03:00;101735.56;;;4.48;87.05
57859;BME280;49153;45.568;11.894;2023-01-15T01:05:26;101738.03;;;4.52;87.16
57859;BME280;49153;45.568;11.894;2023-01-15T01:07:51;101729.31;;;4.52;87.09
57859;BME280;49153;45.568;11.894;2023-01-15T01:10:17;101720.56;;;4.54;87.20
57859;BME280;49153;45.568;11.894;2023-01-15T01:12:42;101718.50;;;4.64;87.10
57859;BME280;49153;45.568;11.894;2023-01-15T01:15:08;101714.00;;;4.69;87.05
57859;BME280;49153;45.568;11.894;2023-01-15T01:17:36;101723.47;;;4.72;87.00
57859;BME280;49153;45.568;11.894;2023-01-15T01:20:03;101725.13;;;4.76;86.93
57859;BME280;49153;45.568;11.894;2023-01-15T01:22:28;101724.34;;;4.72;86.75
57859;BME280;49153;45.568;11.894;2023-01-15T01:24:54;101707.19;;;4.63;86.88
57859;BME280;49153;45.568;11.894;2023-01-15T01:27:19;101715.75;;;4.68;86.91
57859;BME280;49153;45.568;11.894;2023-01-15T01:29:45;101716.66;;;4.67;87.24
57859;BME280;49153;45.568;11.894;2023-01-15T01:32:10;101720.00;;;4.71;87.38
57859;BME280;49153;45.568;11.894;2023-01-15T01:34:36;101708.69;;;4.71;87.73
57859;BME280;49153;45.568;11.894;2023-01-15T01:37:01;101692.41;;;4.62;87.79
57859;BME280;49153;45.568;11.894;2023-01-15T01:39:26;101698.47;;;4.64;87.69
57859;BME280;49153;45.568;11.894;2023-01-15T01:41:52;101695.03;;;4.62;87.84
57859;BME280;49153;45.568;11.894;2023-01-15T01:47:05;101693.94;;;4.70;87.97
57859;BME280;49153;45.568;11.894;2023-01-15T01:49:53;101694.59;;;4.76;88.03
57859;BME280;49153;45.568;11.894;2023-01-15T01:52:26;101697.28;;;4.75;87.64
57859;BME280;49153;45.568;11.894;2023-01-15T01:54:52;101687.75;;;4.72;87.97
57859;BME280;49153;45.568;11.894;2023-01-15T01:57:19;101678.44;;;4.63;88.24
57859;BME280;49153;45.568;11.894;2023-01-15T01:59:45;101664.50;;;4.64;88.19
57859;BME280;49153;45.568;11.894;2023-01-15T02:02:11;101669.59;;;4.67;88.03
57859;BME280;49153;45.568;11.894;2023-01-15T02:04:38;101663.63;;;4.64;88.66
57859;BME280;49153;45.568;11.894;2023-01-15T02:07:05;101666.25;;;4.64;88.67
57859;BME280;49153;45.568;11.894;2023-01-15T02:09:31;101665.47;;;4.60;89.27
57859;BME280;49153;45.568;11.894;2023-01-15T02:12:01;101654.31;;;4.55;89.63
57859;BME280;49153;45.568;11.894;2023-01-15T02:14:42;101658.56;;;4.59;89.50
57859;BME280;49153;45.568;11.894;2023-01-15T02:17:15;101656.81;;;4.60;89.64
57859;BME280;49153;45.568;11.894;2023-01-15T02:19:50;101645.50;;;4.59;89.92
57859;BME280;49153;45.568;11.894;2023-01-15T02:22:42;101640.25;;;4.59;90.06
57859;BME280;49153;45.568;11.894;2023-01-15T02:28:01;101635.78;;;4.63;90.31
57859;BME280;49153;45.568;11.894;2023-01-15T02:30:43;101624.59;;;4.59;90.12
57859;BME280;49153;45.568;11.894;2023-01-15T02:33:19;101620.31;;;4.57;90.03
57859;BME280;49153;45.568;11.894;2023-01-15T02:35:55;101627.78;;;4.67;90.14
57859;BME280;49153;45.568;11.894;2023-01-15T02:38:28;101635.44;;;4.74;90.09
57859;BME280;49153;45.568;11.894;2023-01-15T02:40:58;101631.97;;;4.73;90.14
57859;BME280;49153;45.568;11.894;2023-01-15T02:43:26;101608.59;;;4.68;90.23
57859;BME280;49153;45.568;11.894;2023-01-15T02:45:56;101611.88;;;4.75;89.62
57859;BME280;49153;45.568;11.894;2023-01-15T02:48:25;101603.22;;;4.73;90.07
57859;BME280;49153;45.568;11.894;2023-01-15T02:51:06;101613.19;;;4.87;90.26
57859;BME280;49153;45.568;11.894;2023-01-15T02:53:36;101616.44;;;4.95;90.08
57859;BME280;49153;45.568;11.894;2023-01-15T02:56:08;101593.22;;;4.86;90.00
57859;BME280;49153;45.568;11.894;2023-01-15T02:58:37;101596.47;;;4.92;90.16
57859;BME280;49153;45.568;11.894;2023-01-15T03:01:10;101596.41;;;4.94;89.80
57859;BME280;49153;45.568;11.894;2023-01-15T03:06:45;101594.28;;;5.05;90.53
57859;BME280;49153;45.568;11.894;2023-01-15T03:09:13;101582.13;;;5.04;90.36
57859;BME280;49153;45.568;11.894;2023-01-15T03:11:45;101603.31;;;5.21;90.47
57859;BME280;49153;45.568;11.894;2023-01-15T03:14:35;101591.13;;;5.20;90.55
57859;BME280;49153;45.568;11.894;2023-01-15T03:17:13;101581.38;;;5.25;90.13
57859;BME280;49153;45.568;11.894;2023-01-15T03:20:24;101595.72;;;5.38;90.05
57859;BME280;49153;45.568;11.894;2023-01-15T03:22:33;101581.97;;;5.33;89.83
57859;BME280;49153;45.568;11.894;2023-01-15T03:25:04;101578.31;;;5.37;89.68
57859;BME280;49153;45.568;11.894;2023-01-15T03:27:31;101580.78;;;5.42;89.85
57859;BME280;49153;45.568;11.894;2023-01-15T03:30:03;101569.34;;;5.44;90.35
57859;BME280;49153;45.568;11.894;2023-01-15T03:32:29;101566.66;;;5.46;89.94
57859;BME280;49153;45.568;11.894;2023-01-15T03:34:55;101558.13;;;5.41;89.40
57859;BME280;49153;45.568;11.894;2023-01-15T03:37:24;101551.31;;;5.37;89.66
57859;BME280;49153;45.568;11.894;2023-01-15T03:39:50;101572.09;;;5.40;89.37
57859;BME280;49153;45.568;11.894;2023-01-15T03:50:24;101552.03;;;5.17;90.90
57859;BME280;49153;45.568;11.894;2023-01-15T03:56:00;101548.19;;;5.27;90.37
57859;BME280;49153;45.568;11.894;2023-01-15T03:59:04;101547.50;;;5.22;90.33
57859;BME280;49153;45.568;11.894;2023-01-15T04:01:37;101543.97;;;5.23;90.10
57859;BME280;49153;45.568;11.894;2023-01-15T04:04:04;101555.22;;;5.25;90.12
57859;BME280;49153;45.568;11.894;2023-01-15T04:06:33;101535.53;;;5.15;90.12
57859;BME280;49153;45.568;11.894;2023-01-15T04:09:00;101538.84;;;5.20;90.16
57859;BME280;49153;45.568;11.894;2023-01-15T04:11:27;101544.78;;;5.24;89.70
57859;BME280;49153;45.568;11.894;2023-01-15T04:13:52;101541.50;;;5.19;89.88
57859;BME280;49153;45.568;11.894;2023-01-15T04:16:24;101527.59;;;5.18;89.98
57859;BME280;49153;45.568;11.894;2023-01-15T04:18:50;101545.56;;;5.27;90.05
57859;BME280;49153;45.568;11.894;2023-01-15T04:21:16;101541.34;;;5.23;90.12
57859;BME280;49153;45.568;11.894;2023-01-15T04:23:41;101531.88;;;5.19;90.04
57859;BME280;49153;45.568;11.894;2023-01-15T04:26:06;101539.47;;;5.27;89.84
57859;BME280;49153;45.568;11.894;2023-01-15T04:28:32;101536.81;;;5.28;89.85
57859;BME280;49153;45.568;11.894;2023-01-15T04:30:58;101530.13;;;5.20;89.81
57859;BME280;49153;45.568;11.894;2023-01-15T04:33:24;101537.03;;;5.22;90.19
57859;BME280;49153;45.568;11.894;2023-01-15T04:35:50;101520.97;;;5.08;90.03
57859;BME280;49153;45.568;11.894;2023-01-15T04:38:15;101527.00;;;5.10;89.98
57859;BME280;49153;45.568;11.894;2023-01-15T04:40:42;101526.88;;;5.13;89.82
57859;BME280;49153;45.568;11.894;2023-01-15T04:43:26;101507.88;;;5.08;90.36
57859;BME280;49153;45.568;11.894;2023-01-15T04:46:10;101496.59;;;5.07;90.06
57859;BME280;49153;45.568;11.894;2023-01-15T04:48:38;101493.91;;;5.09;90.21
57859;BME280;49153;45.568;11.894;2023-01-15T04:51:04;101473.84;;;5.09;90.21
57859;BME280;49153;45.568;11.894;2023-01-15T04:53:30;101480.66;;;5.14;89.56
57859;BME280;49153;45.568;11.894;2023-01-15T04:56:00;101476.63;;;5.05;89.17
57859;BME280;49153;45.568;11.894;2023-01-15T04:58:26;101461.28;;;4.96;89.76
57859;BME280;49153;45.568;11.894;2023-01-15T05:00:51;101454.31;;;4.96;90.03
57859;BME280;49153;45.568;11.894;2023-01-15T05:03:17;101480.06;;;5.07;89.79
57859;BME280;49153;45.568;11.894;2023-01-15T05:05:42;101488.91;;;5.03;89.89
57859;BME280;49153;45.568;11.894;2023-01-15T05:08:08;101480.38;;;4.98;90.05
57859;BME280;49153;45.568;11.894;2023-01-15T05:10:33;101459.75;;;4.90;89.45
57859;BME280;49153;45.568;11.894;2023-01-15T05:12:58;101460.66;;;4.89;89.58
57859;BME280;49153;45.568;11.894;2023-01-15T05:15:24;101461.56;;;4.88;89.53
57859;BME280;49153;45.568;11.894;2023-01-15T05:17:49;101460.00;;;4.83;89.47
57859;BME280;49153;45.568;11.894;2023-01-15T05:20:15;101465.22;;;4.83;89.53
57859;BME280;49153;45.568;11.894;2023-01-15T05:22:40;101452.56;;;4.72;89.30
57859;BME280;49153;45.568;11.894;2023-01-15T05:25:06;101460.44;;;4.71;89.16
57859;BME280;49153;45.568;11.894;2023-01-15T05:27:31;101457.38;;;4.59;89.49
57859;BME280;49153;45.568;11.894;2023-01-15T05:29:57;101464.88;;;4.68;90.11
57859;BME280;49153;45.568;11.894;2023-01-15T05:32:22;101456.44;;;4.60;90.04
57859;BME280;49153;45.568;11.894;2023-01-15T05:34:47;101466.50;;;4.71;90.14
57859;BME280;49153;45.568;11.894;2023-01-15T05:37:13;101463.91;;;4.71;90.50
57859;BME280;49153;45.568;11.894;2023-01-15T05:39:38;101468.22;;;4.72;90.13
57859;BME280;49153;45.568;11.894;2023-01-15T05:42:04;101458.06;;;4.64;90.14
57859;BME280;49153;45.568;11.894;2023-01-15T05:44:29;101457.03;;;4.68;90.71
57859;BME280;49153;45.568;11.894;2023-01-15T05:47:00;101458.59;;;4.74;90.48
57859;BME280;49153;45.568;11.894;2023-01-15T05:49:32;101451.09;;;4.65;90.44
57859;BME280;49153;45.568;11.894;2023-01-15T05:51:59;101463.69;;;4.77;89.98
57859;BME280;49153;45.568;11.894;2023-01-15T05:54:27;101464.47;;;4.81;90.78
57859;BME280;49153;45.568;11.894;2023-01-15T05:56:53;101459.91;;;4.86;90.55
57859;BME280;49153;45.568;11.894;2023-01-15T05:59:22;101459.78;;;4.89;90.55
57859;BME280;49153;45.568;11.894;2023-01-15T06:01:48;101454.22;;;4.75;90.37
57859;BME280;49153;45.568;11.894;2023-01-15T06:04:14;101470.50;;;4.81;90.43
57859;BME280;49153;45.568;11.894;2023-01-15T06:06:41;101472.28;;;4.81;90.77
57859;BME280;49153;45.568;11.894;2023-01-15T06:09:07;101460.44;;;4.71;90.49
57859;BME280;49153;45.568;11.894;2023-01-15T06:11:32;101457.00;;;4.70;90.72
57859;BME280;49153;45.568;11.894;2023-01-15T06:13:58;101464.72;;;4.73;91.26
57859;BME280;49153;45.568;11.894;2023-01-15T06:16:23;101462.06;;;4.75;90.84
57859;BME280;49153;45.568;11.894;2023-01-15T06:18:49;101450.09;;;4.67;91.36
57859;BME280;49153;45.568;11.894;2023-01-15T06:21:14;101453.25;;;4.77;91.65
57859;BME280;49153;45.568;11.894;2023-01-15T06:23:40;101443.75;;;4.75;91.34
57859;BME280;49153;45.568;11.894;2023-01-15T06:26:12;101441.03;;;4.78;91.50
57859;BME280;49153;45.568;11.894;2023-01-15T06:28:38;101464.13;;;4.90;91.68
57859;BME280;49153;45.568;11.894;2023-01-15T06:31:08;101452.13;;;4.84;91.57
57859;BME280;49153;45.568;11.894;2023-01-15T06:33:34;101458.97;;;4.87;91.67
57859;BME280;49153;45.568;11.894;2023-01-15T06:36:04;101466.94;;;4.84;91.35
57859;BME280;49153;45.568;11.894;2023-01-15T06:38:30;101454.69;;;4.86;91.33
57859;BME280;49153;45.568;11.894;2023-01-15T06:40:58;101468.31;;;4.94;92.05
57859;BME280;49153;45.568;11.894;2023-01-15T06:43:24;101460.47;;;4.94;91.29
57859;BME280;49153;45.568;11.894;2023-01-15T06:46:08;101446.59;;;4.92;91.87
57859;BME280;49153;45.568;11.894;2023-01-15T06:48:53;101436.22;;;4.90;91.70
57859;BME280;49153;45.568;11.894;2023-01-15T06:51:18;101424.09;;;4.88;92.13
57859;BME280;49153;45.568;11.894;2023-01-15T06:53:46;101434.25;;;4.97;92.02
57859;BME280;49153;45.568;11.894;2023-01-15T06:56:12;101422.97;;;4.95;92.17
57859;BME280;49153;45.568;11.894;2023-01-15T06:58:40;101414.44;;;4.90;92.30
57859;BME280;49153;45.568;11.894;2023-01-15T07:01:10;101405.59;;;4.94;92.08
57859;BME280;49153;45.568;11.894;2023-01-15T07:03:36;101398.41;;;4.99;92.13
57859;BME280;49153;45.568;11.894;2023-01-15T07:06:09;101389.81;;;4.97;92.45
57859;BME280;49153;45.568;11.894;2023-01-15T07:08:35;101387.91;;;5.00;92.42
57859;BME280;49153;45.568;11.894;2023-01-15T07:11:05;101402.69;;;5.01;93.04
57859;BME280;49153;45.568;11.894;2023-01-15T07:13:31;101413.75;;;5.08;93.23
57859;BME280;49153;45.568;11.894;2023-01-15T07:16:01;101420.81;;;5.06;92.65
57859;BME280;49153;45.568;11.894;2023-01-15T07:18:28;101419.75;;;5.12;93.04
57859;BME280;49153;45.568;11.894;2023-01-15T07:20:57;101409.50;;;5.05;92.70
57859;BME280;49153;45.568;11.894;2023-01-15T07:23:24;101410.13;;;5.12;93.21
57859;BME280;49153;45.568;11.894;2023-01-15T07:25:52;101414.34;;;5.16;92.90
57859;BME280;49153;45.568;11.894;2023-01-15T07:28:18;101398.88;;;5.10;93.09
57859;BME280;49153;45.568;11.894;2023-01-15T07:30:44;101407.34;;;5.17;93.03
57859;BME280;49153;45.568;11.894;2023-01-15T07:33:09;101413.25;;;5.22;92.87
57859;BME280;49153;45.568;11.894;2023-01-15T07:35:35;101417.00;;;5.15;92.90
57859;BME280;49153;45.568;11.894;2023-01-15T07:38:01;101400.69;;;5.08;93.29
57859;BME280;49153;45.568;11.894;2023-01-15T07:40:27;101402.28;;;5.12;93.57
57859;BME280;49153;45.568;11.894;2023-01-15T07:42:52;101406.59;;;5.13;93.80
57859;BME280;49153;45.568;11.894;2023-01-15T07:45:38;101408.25;;;5.16;93.80
57859;BME280;49153;45.568;11.894;2023-01-15T07:48:24;101413.44;;;5.17;93.58
57859;BME280;49153;45.568;11.894;2023-01-15T07:51:08;101419.19;;;5.25;93.96
57859;BME280;49153;45.568;11.894;2023-01-15T07:53:34;101391.41;;;5.23;94.25
57859;BME280;49153;45.568;11.894;2023-01-15T07:55:59;101387.88;;;5.24;93.86
57859;BME280;49153;45.568;11.894;2023-01-15T07:58:25;101381.72;;;5.25;94.00
57859;BME280;49153;45.568;11.894;2023-01-15T08:00:50;101373.59;;;5.32;94.29
57859;BME280;49153;45.568;11.894;2023-01-15T08:03:16;101376.31;;;5.29;93.89
57859;BME280;49153;45.568;11.894;2023-01-15T08:05:42;101370.19;;;5.30;93.85
57859;BME280;49153;45.568;11.894;2023-01-15T08:08:16;101381.22;;;5.38;93.79
57859;BME280;49153;45.568;11.894;2023-01-15T08:10:41;101388.75;;;5.46;94.27
57859;BME280;49153;45.568;11.894;2023-01-15T08:13:25;101375.75;;;5.44;94.28
57859;BME280;49153;45.568;11.894;2023-01-15T08:16:10;101375.59;;;5.47;93.52
57859;BME280;49153;45.568;11.894;2023-01-15T08:18:36;101394.53;;;5.54;93.87
57859;BME280;49153;45.568;11.894;2023-01-15T08:21:01;101382.31;;;5.55;94.10
57859;BME280;49153;45.568;11.894;2023-01-15T08:23:27;101386.56;;;5.57;94.10
57859;BME280;49153;45.568;11.894;2023-01-15T08:25:52;101400.13;;;5.67;94.37
57859;BME280;49153;45.568;11.894;2023-01-15T08:28:18;101392.34;;;5.65;94.35
57859;BME280;49153;45.568;11.894;2023-01-15T08:30:43;101392.25;;;5.67;94.40
57859;BME280;49153;45.568;11.894;2023-01-15T08:33:08;101376.47;;;5.70;93.93
57859;BME280;49153;45.568;11.894;2023-01-15T08:35:34;101365.00;;;5.72;94.43
57859;BME280;49153;45.568;11.894;2023-01-15T08:38:06;101384.84;;;5.78;94.82
57859;BME280;49153;45.568;11.894;2023-01-15T08:40:32;101391.78;;;5.79;94.50
57859;BME280;49153;45.568;11.894;2023-01-15T08:42:57;101395.25;;;5.79;94.62
57859;BME280;49153;45.568;11.894;2023-01-15T08:45:23;101387.34;;;5.81;94.67
57859;BME280;49153;45.568;11.894;2023-01-15T08:47:48;101391.44;;;5.88;94.72
57859;BME280;49153;45.568;11.894;2023-01-15T08:50:14;101382.56;;;5.92;94.61
57859;BME280;49153;45.568;11.894;2023-01-15T08:52:39;101381.63;;;5.93;94.89
57859;BME280;49153;45.568;11.894;2023-01-15T08:55:06;101391.06;;;5.97;94.49
57859;BME280;49153;45.568;11.894;2023-01-15T08:57:31;101372.84;;;5.94;94.66
57859;BME280;49153;45.568;11.894;2023-01-15T08:59:57;101377.84;;;6.00;94.30
57859;BME280;49153;45.568;11.894;2023-01-15T09:02:22;101376.97;;;6.00;94.30
57859;BME280;49153;45.568;11.894;2023-01-15T09:04:48;101381.25;;;6.02;94.33
57859;BME280;49153;45.568;11.894;2023-01-15T09:07:13;101377.78;;;6.02;94.50
57859;BME280;49153;45.568;11.894;2023-01-15T09:09:39;101371.78;;;5.98;94.23
57859;BME280;49153;45.568;11.894;2023-01-15T09:12:04;101374.34;;;6.00;94.49
57859;BME280;49153;45.568;11.894;2023-01-15T09:14:30;101378.63;;;6.02;94.59
57859;BME280;49153;45.568;11.894;2023-01-15T09:16:55;101375.63;;;6.11;94.56
57859;BME280;49153;45.568;11.894;2023-01-15T09:19:21;101371.94;;;6.15;94.53
57859;BME280;49153;45.568;11.894;2023-01-15T09:21:47;101369.22;;;6.18;94.34
57859;BME280;49153;45.568;11.894;2023-01-15T09:24:12;101366.38;;;6.23;94.52
57859;BME280;49153;45.568;11.894;2023-01-15T09:26:39;101391.19;;;6.34;94.44
57859;BME280;49153;45.568;11.894;2023-01-15T09:29:05;101377.16;;;6.35;94.32
57859;BME280;49153;45.568;11.894;2023-01-15T09:31:32;101369.75;;;6.45;94.37
57859;BME280;49153;45.568;11.894;2023-01-15T09:33:57;101362.03;;;6.42;94.23
57859;BME280;49153;45.568;11.894;2023-01-15T09:36:33;101366.97;;;6.50;94.13
57859;BME280;49153;45.568;11.894;2023-01-15T09:39:00;101364.34;;;6.50;94.08
57859;BME280;49153;45.568;11.894;2023-01-15T09:41:34;101362.47;;;6.52;94.47
57859;BME280;49153;45.568;11.894;2023-01-15T09:47:02;101351.72;;;6.58;94.51
57859;BME280;49153;45.568;11.894;2023-01-15T09:49:52;101360.25;;;6.63;94.86
57859;BME280;49153;45.568;11.894;2023-01-15T09:52:32;101360.25;;;6.63;94.88
57859;BME280;49153;45.568;11.894;2023-01-15T09:55:26;101348.78;;;6.65;94.63
57859;BME280;49153;45.568;11.894;2023-01-15T09:57:57;101358.00;;;6.74;94.30
57859;BME280;49153;45.568;11.894;2023-01-15T10:00:26;101350.69;;;6.81;93.90
57859;BME280;49153;45.568;11.894;2023-01-15T10:05:34;101354.59;;;6.91;93.70
57859;BME280;49153;45.568;11.894;2023-01-15T10:08:18;101339.78;;;6.90;93.50
57859;BME280;49153;45.568;11.894;2023-01-15T10:10:47;101349.94;;;6.97;93.59
57859;BME280;49153;45.568;11.894;2023-01-15T10:16:10;101337.28;;;7.05;93.18
57859;BME280;49153;45.568;11.894;2023-01-15T10:18:37;101321.84;;;6.99;92.51
57859;BME280;49153;45.568;11.894;2023-01-15T10:28:57;101305.25;;;7.17;92.17
57859;BME280;49153;45.568;11.894;2023-01-15T10:31:48;101305.72;;;7.26;92.19
57859;BME280;49153;45.568;11.894;2023-01-15T10:37:11;101292.31;;;7.32;91.88
57859;BME280;49153;45.568;11.894;2023-01-15T10:39:43;101307.53;;;7.42;91.54
57859;BME280;49153;45.568;11.894;2023-01-15T10:47:29;101293.41;;;7.45;91.08
57859;BME280;49153;45.568;11.894;2023-01-15T10:49:58;101285.53;;;7.45;91.08
57859;BME280;49153;45.568;11.894;2023-01-15T10:52:32;101267.91;;;7.47;90.67
57859;BME280;49153;45.568;11.894;2023-01-15T10:55:18;101263.44;;;7.49;90.94
57859;BME280;49153;45.568;11.894;2023-01-15T10:58:07;101275.19;;;7.59;90.50
57859;BME280;49153;45.568;11.894;2023-01-15T11:00:36;101272.41;;;7.62;90.28
57859;BME280;49153;45.568;11.894;2023-01-15T11:03:04;101260.00;;;7.66;90.40
57859;BME280;49153;45.568;11.894;2023-01-15T11:05:34;101244.47;;;7.61;90.39
57859;BME280;49153;45.568;11.894;2023-01-15T11:08:02;101244.75;;;7.72;90.07
57859;BME280;49153;45.568;11.894;2023-01-15T11:10:31;101245.47;;;7.76;90.11
57859;BME280;49153;45.568;11.894;2023-01-15T11:13:00;101240.88;;;7.79;90.05
57859;BME280;49153;45.568;11.894;2023-01-15T11:15:47;101241.06;;;7.76;89.91
57859;BME280;49153;45.568;11.894;2023-01-15T11:18:54;101244.31;;;7.81;90.21
57859;BME280;49153;45.568;11.894;2023-01-15T11:21:40;101231.25;;;7.80;89.72
57859;BME280;49153;45.568;11.894;2023-01-15T11:24:13;101243.38;;;7.82;89.91
57859;BME280;49153;45.568;11.894;2023-01-15T11:26:39;101213.88;;;7.77;89.66
57859;BME280;49153;45.568;11.894;2023-01-15T11:29:14;101207.53;;;7.81;89.94
57859;BME280;49153;45.568;11.894;2023-01-15T11:31:40;101197.09;;;7.80;89.79
57859;BME280;49153;45.568;11.894;2023-01-15T11:34:17;101203.81;;;7.85;90.26
57859;BME280;49153;45.568;11.894;2023-01-15T11:36:43;101189.03;;;7.83;89.87
57859;BME280;49153;45.568;11.894;2023-01-15T11:39:26;101177.53;;;7.85;89.71
57859;BME280;49153;45.568;11.894;2023-01-15T11:42:11;101189.75;;;7.86;89.85
57859;BME280;49153;45.568;11.894;2023-01-15T11:44:57;101184.50;;;7.86;89.81
57859;BME280;49153;45.568;11.894;2023-01-15T11:47:51;101193.31;;;7.85;89.96
57859;BME280;49153;45.568;11.894;2023-01-15T11:50:46;101196.72;;;7.87;89.59
57859;BME280;49153;45.568;11.894;2023-01-15T11:53:19;101178.78;;;7.78;89.58
57859;BME280;49153;45.568;11.894;2023-01-15T11:56:00;101169.75;;;7.84;89.40
57859;BME280;49153;45.568;11.894;2023-01-15T11:58:27;101162.56;;;7.87;89.70
57859;BME280;49153;45.568;11.894;2023-01-15T12:00:53;101157.38;;;7.86;90.17
57859;BME280;49153;45.568;11.894;2023-01-15T12:03:24;101145.09;;;7.86;90.31
57859;BME280;49153;45.568;11.894;2023-01-15T12:06:00;101145.09;;;7.86;90.42
57859;BME280;49153;45.568;11.894;2023-01-15T12:11:12;101139.75;;;7.88;90.46
57859;BME280;49153;45.568;11.894;2023-01-15T12:22:18;101118.94;;;8.00;91.27
57859;BME280;49153;45.568;11.894;2023-01-15T12:33:18;101097.81;;;7.86;91.01
57859;BME280;49153;45.568;11.894;2023-01-15T12:36:02;101085.28;;;7.76;90.79
57859;BME280;49153;45.568;11.894;2023-01-15T12:41:16;101096.88;;;7.72;91.27
57859;BME280;49153;45.568;11.894;2023-01-15T12:43:48;101092.81;;;7.66;90.82
57859;BME280;49153;45.568;11.894;2023-01-15T12:46:33;101090.19;;;7.66;91.22
57859;BME280;49153;45.568;11.894;2023-01-15T12:49:08;101083.97;;;7.67;91.40
57859;BME280;49153;45.568;11.894;2023-01-15T12:52:09;101089.06;;;7.70;91.48
57859;BME280;49153;45.568;11.894;2023-01-15T12:55:30;101072.28;;;7.73;91.18
57859;BME280;49153;45.568;11.894;2023-01-15T12:57:55;101082.47;;;7.79;91.74
57859;BME280;49153;45.568;11.894;2023-01-15T13:00:27;101084.84;;;7.83;91.87
57859;BME280;49153;45.568;11.894;2023-01-15T13:03:00;101090.69;;;7.88;91.85
57859;BME280;49153;45.568;11.894;2023-01-15T13:05:39;101082.81;;;7.88;91.63
57859;BME280;49153;45.568;11.894;2023-01-15T13:08:17;101087.00;;;7.92;91.75
57859;BME280;49153;45.568;11.894;2023-01-15T13:10:44;101077.22;;;7.94;92.27
57859;BME280;49153;45.568;11.894;2023-01-15T13:13:16;101081.47;;;7.97;92.35
57859;BME280;49153;45.568;11.894;2023-01-15T13:19:08;101059.19;;;7.88;91.99
57859;BME280;49153;45.568;11.894;2023-01-15T13:21:37;101051.66;;;7.82;92.07
57859;BME280;49153;45.568;11.894;2023-01-15T13:24:31;101044.72;;;7.81;92.32
57859;BME280;49153;45.568;11.894;2023-01-15T13:32:23;101049.25;;;7.93;92.67
57859;BME280;49153;45.568;11.894;2023-01-15T13:37:28;101023.69;;;7.97;92.94
57859;BME280;49153;45.568;11.894;2023-01-15T13:42:31;101018.00;;;8.04;92.72
57859;BME280;49153;45.568;11.894;2023-01-15T13:45:00;101023.16;;;8.06;92.45
57859;BME280;49153;45.568;11.894;2023-01-15T13:47:30;101027.56;;;8.05;92.67
57859;BME280;49153;45.568;11.894;2023-01-15T13:50:15;101024.88;;;8.07;92.89
57859;BME280;49153;45.568;11.894;2023-01-15T13:52:42;101018.84;;;8.05;92.69
57859;BME280;49153;45.568;11.894;2023-01-15T13:57:41;101003.69;;;7.94;92.34
57859;BME280;49153;45.568;11.894;2023-01-15T14:02:56;101004.03;;;7.88;92.96
57859;BME280;49153;45.568;11.894;2023-01-15T14:07:50;100986.00;;;7.82;92.88
57859;BME280;49153;45.568;11.894;2023-01-15T14:18:24;100982.44;;;7.68;93.90
57859;BME280;49153;45.568;11.894;2023-01-15T14:21:18;100988.13;;;7.60;94.34
57859;BME280;49153;45.568;11.894;2023-01-15T14:34:58;101005.47;;;7.62;94.86
57859;BME280;49153;45.568;11.894;2023-01-15T14:37:32;101014.38;;;7.60;95.28
57859;BME280;49153;45.568;11.894;2023-01-15T14:40:04;100984.91;;;7.55;95.07
57859;BME280;49153;45.568;11.894;2023-01-15T14:42:33;100990.88;;;7.57;95.61
57859;BME280;49153;45.568;11.894;2023-01-15T14:45:34;100997.09;;;7.56;95.56
57859;BME280;49153;45.568;11.894;2023-01-15T14:50:52;101000.13;;;7.48;95.84
57859;BME280;49153;45.568;11.894;2023-01-15T14:53:30;100999.44;;;7.45;96.19
57859;BME280;49153;45.568;11.894;2023-01-15T14:56:03;100986.56;;;7.40;96.45
57859;BME280;49153;45.568;11.894;2023-01-15T14:58:51;100999.53;;;7.43;96.47